createdAt,value
2023-01-13T00:03:21.770Z,17.32
2023-01-13T00:08:25.445Z,17.13
2023-01-13T00:13:28.910Z,17.93
2023-01-13T00:18:34.081Z,17.02
2023-01-13T00:23:37.701Z,17.67
2023-01-13T00:28:41.135Z,17.03
2023-01-13T00:33:46.256Z,17.41
2023-01-13T00:38:50.212Z,17.37
2023-01-13T00:43:54.063Z,17.34
2023-01-13T00:48:58.862Z,17.35
2023-01-13T00:54:02.487Z,17.73
2023-01-13T00:59:06.003Z,16.47
2023-01-13T01:04:11.140Z,16.94
2023-01-13T01:09:15.573Z,17.36
2023-01-13T01:14:18.970Z,17.62
2023-01-13T01:19:23.793Z,17.14
2023-01-13T01:24:27.178Z,16.76
2023-01-13T01:29:30.652Z,17.01
2023-01-13T01:34:35.698Z,17.79
2023-01-13T01:39:39.047Z,17.35
2023-01-13T01:45:01.322Z,16.87
2023-01-13T01:50:06.923Z,17.61
2023-01-13T01:55:13.120Z,17.42
2023-01-13T02:00:16.877Z,17.58
2023-01-13T02:05:21.838Z,17.86
2023-01-13T02:10:28.022Z,17.42
2023-01-13T02:15:36.414Z,16.65
2023-01-13T02:20:49.281Z,17.46
2023-01-13T02:26:06.680Z,16.98
2023-01-13T02:31:33.737Z,17.03
2023-01-13T02:36:40.753Z,17.41
2023-01-13T02:42:07.049Z,16.93
2023-01-13T02:47:16.699Z,17.62
2023-01-13T02:52:23.993Z,16.81
2023-01-13T02:57:27.679Z,17.10
2023-01-13T03:02:32.564Z,17.11
2023-01-13T03:07:47.779Z,16.12
2023-01-13T03:12:58.764Z,15.93
2023-01-13T03:18:09.988Z,16.08
2023-01-13T03:23:18.543Z,17.06
2023-01-13T03:28:26.414Z,16.76
2023-01-13T03:33:34.318Z,16.78
2023-01-13T03:38:39.501Z,16.38
2023-01-13T03:44:02.955Z,16.76
2023-01-13T03:49:08.505Z,16.76
2023-01-13T03:54:13.165Z,16.47
2023-01-13T03:59:21.769Z,16.83
2023-01-13T04:04:30.491Z,16.38
2023-01-13T04:09:38.330Z,16.61
2023-01-13T04:14:42.103Z,17.68
2023-01-13T04:19:46.846Z,16.57
2023-01-13T04:24:50.252Z,17.32
2023-01-13T04:29:53.706Z,16.43
2023-01-13T04:34:58.460Z,16.88
2023-01-13T04:40:01.867Z,16.81
2023-01-13T04:45:06.002Z,16.93
2023-01-13T04:50:12.292Z,17.40
2023-01-13T04:55:16.577Z,17.35
2023-01-13T05:00:22.083Z,17.61
2023-01-13T05:05:27.347Z,16.94
2023-01-13T05:10:30.893Z,16.76
2023-01-13T05:15:52.114Z,16.01
2023-01-13T05:20:56.917Z,16.29
2023-01-13T05:26:00.285Z,16.07
2023-01-13T05:31:03.702Z,16.46
2023-01-13T05:36:09.558Z,15.61
2023-01-13T05:41:30.541Z,16.64
2023-01-13T05:46:33.926Z,16.23
2023-01-13T05:51:38.827Z,16.38
2023-01-13T05:56:42.240Z,16.29
2023-01-13T06:01:45.835Z,15.30
2023-01-13T06:06:50.602Z,15.81
2023-01-13T06:11:54.030Z,16.20
2023-01-13T06:16:57.444Z,15.83
2023-01-13T06:22:07.180Z,16.61
2023-01-13T06:27:10.767Z,16.69
2023-01-13T06:32:18.067Z,16.73
2023-01-13T06:37:25.400Z,16.23
2023-01-13T06:42:47.184Z,16.51
2023-01-13T06:47:50.635Z,16.72
2023-01-13T06:52:55.365Z,17.32
2023-01-13T06:57:59.154Z,17.44
2023-01-13T07:03:07.282Z,16.31
2023-01-13T07:08:12.243Z,16.85
2023-01-13T07:13:33.208Z,16.14
2023-01-13T07:18:36.979Z,16.10
2023-01-13T07:23:42.336Z,16.92
2023-01-13T07:28:45.693Z,16.50
2023-01-13T07:33:49.245Z,16.19
2023-01-13T07:38:54.926Z,16.06
2023-01-13T07:43:58.442Z,16.06
2023-01-13T07:49:01.805Z,16.09
2023-01-13T07:54:07.014Z,15.69
2023-01-13T07:59:10.375Z,15.98
2023-01-13T08:04:14.022Z,15.52
2023-01-13T08:09:18.703Z,16.13
2023-01-13T08:14:22.299Z,15.21
2023-01-13T08:19:25.683Z,16.26
2023-01-13T08:24:30.348Z,16.54
2023-01-13T08:29:33.733Z,15.65
2023-01-13T08:34:37.747Z,15.53
2023-01-13T08:39:42.402Z,15.07
2023-01-13T08:44:45.782Z,14.96
2023-01-13T08:49:49.283Z,15.39
2023-01-13T08:54:54.068Z,14.82
2023-01-13T08:59:57.513Z,16.09
2023-01-13T09:05:02.828Z,15.62
2023-01-13T09:10:09.775Z,15.08
2023-01-13T09:15:13.482Z,15.26
2023-01-13T09:20:16.898Z,15.55
2023-01-13T09:25:21.558Z,16.31
2023-01-13T09:30:24.983Z,15.42
2023-01-13T09:35:28.401Z,16.01
2023-01-13T09:40:33.153Z,15.65
2023-01-13T09:45:41.291Z,15.63
2023-01-13T09:51:00.709Z,15.67
2023-01-13T09:56:06.515Z,16.26
2023-01-13T10:01:17.427Z,15.84
2023-01-13T10:06:25.187Z,15.82
2023-01-13T10:11:50.288Z,16.23
2023-01-13T10:17:06.916Z,16.11
2023-01-13T10:22:24.457Z,15.96
2023-01-13T10:27:34.423Z,16.23
2023-01-13T10:32:37.754Z,15.95
2023-01-13T10:37:41.151Z,15.97
2023-01-13T10:42:45.856Z,15.41
2023-01-13T10:48:06.796Z,15.71
2023-01-13T10:53:23.428Z,16.09
2023-01-13T10:58:28.475Z,16.80
2023-01-13T11:03:41.407Z,15.50
2023-01-13T11:08:46.018Z,16.14
2023-01-13T11:14:09.109Z,15.90
2023-01-13T11:19:17.072Z,16.34
2023-01-13T11:24:27.024Z,16.23
2023-01-13T11:29:38.822Z,15.70
2023-01-13T11:34:43.301Z,15.80
2023-01-13T11:39:53.691Z,16.45
2023-01-13T11:45:05.791Z,15.84
2023-01-13T11:50:16.108Z,16.89
2023-01-13T11:55:29.828Z,15.12
2023-01-13T12:00:53.343Z,15.20
2023-01-13T12:06:04.120Z,16.23
2023-01-13T12:11:14.418Z,15.23
2023-01-13T12:16:24.898Z,15.14
2023-01-13T12:21:30.137Z,15.26
2023-01-13T12:26:36.028Z,16.11
2023-01-13T12:31:41.511Z,15.98
2023-01-13T12:36:53.588Z,16.47
2023-01-13T12:42:17.212Z,15.41
2023-01-13T12:47:36.304Z,16.13
2023-01-13T12:52:44.651Z,15.75
2023-01-13T12:58:13.616Z,16.30
2023-01-13T13:03:33.668Z,15.52
2023-01-13T13:08:47.701Z,16.16
2023-01-13T13:13:51.269Z,15.65
2023-01-13T13:19:34.521Z,15.74
2023-01-13T13:24:38.014Z,16.45
2023-01-13T13:29:46.692Z,16.02
2023-01-13T13:34:58.181Z,16.59
2023-01-13T13:40:21.073Z,16.77
2023-01-13T13:45:43.812Z,15.83
2023-01-13T13:50:50.415Z,16.28
2023-01-13T13:55:56.774Z,15.79
2023-01-13T14:01:01.155Z,15.52
2023-01-13T14:06:07.805Z,15.87
2023-01-13T14:11:26.524Z,15.28
2023-01-13T14:16:30.097Z,15.08
2023-01-13T14:21:34.895Z,15.36
2023-01-13T14:26:39.265Z,14.80
2023-01-13T14:31:43.378Z,15.06
2023-01-13T14:36:51.012Z,14.67
2023-01-13T14:41:54.498Z,15.51
2023-01-13T14:47:00.394Z,14.72
2023-01-13T14:52:13.524Z,15.16
2023-01-13T14:57:27.677Z,15.78
2023-01-13T15:02:50.206Z,15.62
2023-01-13T15:07:56.573Z,15.56
2023-01-13T15:13:02.081Z,15.72
2023-01-13T15:18:13.800Z,15.43
2023-01-13T15:23:18.704Z,15.30
2023-01-13T15:28:23.470Z,14.48
2023-01-13T15:33:27.041Z,15.65
2023-01-13T15:38:32.250Z,14.92
2023-01-13T15:43:53.346Z,15.26
2023-01-13T15:48:57.724Z,14.83
2023-01-13T15:54:03.739Z,15.29
2023-01-13T15:59:14.765Z,15.07
2023-01-13T16:04:18.179Z,15.01
2023-01-13T16:09:23.095Z,15.35
2023-01-13T16:14:26.722Z,15.59
2023-01-13T16:19:30.864Z,14.83
2023-01-13T16:24:36.026Z,14.82
2023-01-13T16:29:39.418Z,15.50
2023-01-13T16:34:43.183Z,14.74
2023-01-13T16:39:48.005Z,15.44
2023-01-13T16:44:54.290Z,14.86
2023-01-13T16:49:57.937Z,15.26
2023-01-13T16:55:02.888Z,15.43
2023-01-13T17:00:07.402Z,14.42
2023-01-13T17:05:11.893Z,15.33
2023-01-13T17:10:18.649Z,14.84
2023-01-13T17:15:22.402Z,15.02
2023-01-13T17:20:26.035Z,14.59
2023-01-13T17:25:30.866Z,15.67
2023-01-13T17:30:34.222Z,15.18
2023-01-13T17:35:40.002Z,14.93
2023-01-13T17:40:47.617Z,15.30
2023-01-13T17:45:51.250Z,14.92
2023-01-13T17:50:55.161Z,14.87
2023-01-13T17:56:00.144Z,14.69
2023-01-13T18:01:08.353Z,14.80
2023-01-13T18:06:16.931Z,14.59
2023-01-13T18:11:23.604Z,15.22
2023-01-13T18:16:30.513Z,14.93
2023-01-13T18:21:51.665Z,14.08
2023-01-13T18:27:19.658Z,14.63
2023-01-13T18:32:24.383Z,14.74
2023-01-13T18:37:28.418Z,14.98
2023-01-13T18:42:53.856Z,14.99
2023-01-13T18:48:00.268Z,14.44
2023-01-13T18:53:04.110Z,14.65
2023-01-13T18:58:09.152Z,14.66
2023-01-13T19:03:12.935Z,14.29
2023-01-13T19:08:16.460Z,14.12
2023-01-13T19:13:22.008Z,14.75
2023-01-13T19:18:25.972Z,14.52
2023-01-13T19:23:29.609Z,14.54
2023-01-13T19:28:35.106Z,15.07
2023-01-13T19:33:41.692Z,14.31
2023-01-13T19:38:45.408Z,14.44
2023-01-13T19:44:08.078Z,14.93
2023-01-13T19:49:12.167Z,15.22
2023-01-13T19:54:15.818Z,15.01
2023-01-13T19:59:22.292Z,15.28
2023-01-13T20:04:33.813Z,14.64
2023-01-13T20:09:37.365Z,15.32
2023-01-13T20:14:43.354Z,14.63
2023-01-13T20:19:47.142Z,14.96
2023-01-13T20:24:54.975Z,14.16
2023-01-13T20:30:00.144Z,14.81
2023-01-13T20:35:03.542Z,14.91
2023-01-13T20:40:08.495Z,15.21
2023-01-13T20:45:20.480Z,14.48
2023-01-13T20:50:24.326Z,15.10
2023-01-13T20:55:27.797Z,15.23
2023-01-13T21:00:33.057Z,15.11
2023-01-13T21:05:37.452Z,15.53
2023-01-13T21:10:41.044Z,14.53
2023-01-13T21:15:49.150Z,14.57
2023-01-13T21:21:11.225Z,15.03
2023-01-13T21:26:15.599Z,15.64
2023-01-13T21:31:20.523Z,14.78
2023-01-13T21:36:24.729Z,15.09
2023-01-13T21:41:45.627Z,15.00
2023-01-13T21:47:08.012Z,15.72
2023-01-13T21:52:12.251Z,15.36
2023-01-13T21:57:15.917Z,14.92
2023-01-13T22:02:31.998Z,15.32
2023-01-13T22:07:36.395Z,15.35
2023-01-13T22:12:40.445Z,14.89
2023-01-13T22:17:48.332Z,15.26
2023-01-13T22:22:51.902Z,14.73
2023-01-13T22:28:03.419Z,15.63
2023-01-13T22:33:08.169Z,14.75
2023-01-13T22:38:12.247Z,14.64
2023-01-13T22:43:16.907Z,14.22
2023-01-13T22:48:22.186Z,14.70
2023-01-13T22:53:25.937Z,14.83
2023-01-13T22:58:30.042Z,14.96
2023-01-13T23:03:35.415Z,15.04
2023-01-13T23:08:38.961Z,14.85
2023-01-13T23:13:43.737Z,14.59
2023-01-13T23:18:49.074Z,15.05
2023-01-13T23:23:53.313Z,15.20
2023-01-13T23:28:59.909Z,15.28
2023-01-13T23:34:05.153Z,14.81
2023-01-13T23:39:09.101Z,14.53
2023-01-13T23:44:12.801Z,14.21
2023-01-13T23:49:17.784Z,14.58
2023-01-13T23:54:21.781Z,15.11
2023-01-13T23:59:25.198Z,14.65
